createdAt,value
2018-06-15T00:00:18.356Z,67.19
2018-06-15T00:02:51.760Z,67.03
2018-06-15T00:05:19.841Z,67.17
2018-06-15T00:07:47.900Z,67.00
2018-06-15T00:10:15.945Z,66.67
2018-06-15T00:12:44.009Z,67.09
2018-06-15T00:15:12.060Z,66.88
2018-06-15T00:17:40.124Z,66.81
2018-06-15T00:20:08.168Z,67.05
2018-06-15T00:22:36.220Z,66.89
2018-06-15T00:25:04.274Z,67.10
2018-06-15T00:27:32.351Z,66.89
2018-06-15T00:30:00.397Z,66.96
2018-06-15T00:32:28.461Z,67.02
2018-06-15T00:34:56.512Z,66.71
2018-06-15T00:37:24.555Z,66.73
2018-06-15T00:39:52.633Z,67.05
2018-06-15T00:42:20.680Z,66.96
2018-06-15T00:44:48.728Z,67.22
2018-06-15T00:47:16.784Z,66.78
2018-06-15T00:49:44.823Z,67.06
2018-06-15T00:52:12.876Z,67.04
2018-06-15T00:54:40.922Z,67.40
2018-06-15T00:57:20.484Z,67.41
2018-06-15T00:59:48.589Z,66.73
2018-06-15T01:02:16.663Z,67.17
2018-06-15T01:04:44.727Z,67.16
2018-06-15T01:07:12.800Z,67.22
2018-06-15T01:09:40.844Z,66.82
2018-06-15T01:12:08.913Z,67.10
2018-06-15T01:14:36.956Z,66.67
2018-06-15T01:17:05.005Z,67.37
2018-06-15T01:19:33.056Z,67.18
2018-06-15T01:22:01.092Z,67.03
2018-06-15T01:24:29.151Z,67.36
2018-06-15T01:26:57.220Z,67.27
2018-06-15T01:29:25.284Z,67.67
2018-06-15T01:31:53.320Z,67.20
2018-06-15T01:34:21.371Z,67.62
2018-06-15T01:36:49.409Z,67.44
2018-06-15T01:39:17.471Z,67.61
2018-06-15T01:41:45.504Z,67.61
2018-06-15T01:44:13.552Z,67.75
2018-06-15T01:46:41.596Z,67.40
2018-06-15T01:49:09.668Z,67.66
2018-06-15T01:51:37.707Z,67.72
2018-06-15T01:54:05.756Z,67.80
2018-06-15T01:56:33.804Z,68.02
2018-06-15T01:59:01.856Z,67.87
2018-06-15T02:01:29.949Z,67.67
2018-06-15T02:03:58.057Z,67.72
2018-06-15T02:06:26.093Z,68.39
2018-06-15T02:08:54.147Z,67.94
2018-06-15T02:11:23.795Z,68.07
2018-06-15T02:13:51.844Z,68.41
2018-06-15T02:16:19.956Z,68.20
2018-06-15T02:18:48.003Z,68.66
2018-06-15T02:21:16.044Z,68.36
2018-06-15T02:23:44.118Z,68.16
2018-06-15T02:26:12.202Z,68.18
2018-06-15T02:28:40.243Z,68.26
2018-06-15T02:31:08.280Z,68.65
2018-06-15T02:33:36.352Z,68.96
2018-06-15T02:36:04.407Z,68.67
2018-06-15T02:38:32.441Z,68.72
2018-06-15T02:41:00.519Z,68.94
2018-06-15T02:43:28.585Z,68.54
2018-06-15T02:45:56.620Z,68.71
2018-06-15T02:48:24.673Z,68.90
2018-06-15T02:50:52.724Z,69.00
2018-06-15T02:53:20.797Z,69.20
2018-06-15T02:55:48.841Z,68.89
2018-06-15T02:58:16.904Z,69.29
2018-06-15T03:00:44.963Z,68.87
2018-06-15T03:03:13.040Z,69.00
2018-06-15T03:05:41.248Z,68.72
2018-06-15T03:08:09.292Z,69.14
2018-06-15T03:10:37.419Z,68.59
2018-06-15T03:13:05.464Z,69.18
2018-06-15T03:15:33.523Z,69.06
2018-06-15T03:18:01.608Z,69.21
2018-06-15T03:20:29.668Z,69.68
2018-06-15T03:22:57.704Z,69.07
2018-06-15T03:25:25.794Z,69.51
2018-06-15T03:27:53.840Z,69.28
2018-06-15T03:30:21.888Z,69.21
2018-06-15T03:32:49.920Z,69.56
2018-06-15T03:35:17.977Z,69.28
2018-06-15T03:37:46.020Z,69.47
2018-06-15T03:40:14.088Z,69.80
2018-06-15T03:42:42.140Z,69.68
2018-06-15T03:45:10.193Z,69.81
2018-06-15T03:47:38.239Z,69.68
2018-06-15T03:50:06.304Z,69.78
2018-06-15T03:52:34.364Z,69.68
2018-06-15T03:55:02.424Z,69.90
2018-06-15T03:57:30.473Z,69.85
2018-06-15T03:59:58.530Z,69.73
2018-06-15T04:02:26.613Z,69.96
2018-06-15T04:04:54.668Z,70.12
2018-06-15T04:07:22.714Z,70.37
2018-06-15T04:09:50.760Z,70.48
2018-06-15T04:12:18.819Z,70.61
2018-06-15T04:14:46.966Z,70.38
2018-06-15T04:17:15.028Z,70.54
2018-06-15T04:19:43.112Z,70.49
2018-06-15T04:22:11.151Z,70.47
2018-06-15T04:24:39.220Z,70.60
2018-06-15T04:27:07.247Z,70.69
2018-06-15T04:29:35.441Z,70.68
2018-06-15T04:32:03.493Z,71.12
2018-06-15T04:34:31.561Z,70.72
2018-06-15T04:36:59.605Z,71.19
2018-06-15T04:39:27.664Z,71.55
2018-06-15T04:41:55.704Z,71.35
2018-06-15T04:44:23.764Z,71.40
2018-06-15T04:46:51.814Z,71.71
2018-06-15T04:49:19.865Z,71.54
2018-06-15T04:51:47.924Z,72.07
2018-06-15T04:54:15.980Z,72.12
2018-06-15T04:56:44.042Z,71.82
2018-06-15T04:59:12.079Z,71.66
2018-06-15T05:01:40.154Z,71.43
2018-06-15T05:04:08.195Z,71.82
2018-06-15T05:06:36.243Z,71.34
2018-06-15T05:09:06.980Z,71.10
2018-06-15T05:11:35.032Z,70.86
2018-06-15T05:14:03.073Z,70.62
2018-06-15T05:16:31.144Z,70.61
2018-06-15T05:18:59.193Z,70.21
2018-06-15T05:21:27.244Z,70.45
2018-06-15T05:23:55.284Z,69.96
2018-06-15T05:26:23.352Z,69.58
2018-06-15T05:28:51.420Z,69.37
2018-06-15T05:31:19.497Z,68.72
2018-06-15T05:33:47.539Z,68.81
2018-06-15T05:36:15.638Z,68.36
2018-06-15T05:38:43.722Z,67.71
2018-06-15T05:41:11.780Z,67.21
2018-06-15T05:43:39.828Z,67.30
2018-06-15T05:46:08.004Z,66.58
2018-06-15T05:48:36.060Z,66.32
2018-06-15T05:51:04.121Z,66.26
2018-06-15T05:53:32.261Z,65.21
2018-06-15T05:56:00.315Z,65.09
2018-06-15T05:58:28.377Z,64.80
2018-06-15T06:00:56.468Z,64.64
2018-06-15T06:03:24.540Z,63.80
2018-06-15T06:05:52.641Z,62.61
2018-06-15T06:08:21.183Z,63.61
2018-06-15T06:10:49.871Z,63.42
2018-06-15T06:13:18.305Z,63.27
2018-06-15T06:15:46.518Z,62.24
2018-06-15T06:18:14.582Z,61.45
2018-06-15T06:20:42.644Z,61.15
2018-06-15T06:23:10.708Z,60.09
2018-06-15T06:25:38.784Z,59.11
2018-06-15T06:28:06.836Z,58.93
2018-06-15T06:30:34.896Z,58.33
2018-06-15T06:33:02.961Z,58.16
2018-06-15T06:35:31.001Z,56.86
2018-06-15T06:37:59.079Z,57.47
2018-06-15T06:40:27.129Z,55.56
2018-06-15T06:42:55.198Z,56.16
2018-06-15T06:45:23.242Z,56.32
2018-06-15T06:47:51.324Z,54.91
2018-06-15T06:50:19.371Z,54.19
2018-06-15T06:52:47.441Z,53.91
2018-06-15T06:55:15.506Z,53.12
2018-06-15T06:57:43.597Z,52.51
2018-06-15T07:00:11.657Z,51.40
2018-06-15T07:02:39.761Z,50.97
2018-06-15T07:05:07.828Z,51.11
2018-06-15T07:07:35.881Z,49.86
2018-06-15T07:10:03.955Z,49.85
2018-06-15T07:12:32.004Z,48.74
2018-06-15T07:15:00.070Z,47.24
2018-06-15T07:17:28.124Z,47.87
2018-06-15T07:19:56.172Z,46.19
2018-06-15T07:22:24.229Z,46.09
2018-06-15T07:24:52.301Z,46.68
2018-06-15T07:27:20.893Z,45.26
2018-06-15T07:29:48.964Z,43.94
2018-06-15T07:32:17.037Z,44.23
2018-06-15T07:34:45.080Z,44.38
2018-06-15T07:37:13.157Z,43.69
2018-06-15T07:39:41.228Z,43.56
2018-06-15T07:42:09.306Z,43.84
2018-06-15T07:44:37.368Z,43.61
2018-06-15T07:47:05.452Z,42.52
2018-06-15T07:49:33.512Z,41.83
2018-06-15T07:52:01.632Z,41.17
2018-06-15T07:54:29.676Z,39.06
2018-06-15T07:56:57.738Z,40.00
2018-06-15T07:59:25.835Z,40.06
2018-06-15T08:01:53.868Z,39.66
2018-06-15T08:04:22.105Z,39.47
2018-06-15T08:06:50.293Z,39.00
2018-06-15T08:09:18.753Z,38.25
2018-06-15T08:11:46.817Z,37.65
2018-06-15T08:14:14.908Z,37.31
2018-06-15T08:16:42.985Z,36.22
2018-06-15T08:19:11.048Z,35.03
2018-06-15T08:21:39.096Z,35.73
2018-06-15T08:24:07.479Z,34.04
2018-06-15T08:26:35.607Z,35.02
2018-06-15T08:29:03.675Z,34.17
2018-06-15T08:31:31.749Z,34.68
2018-06-15T08:33:59.830Z,33.48
2018-06-15T08:36:27.910Z,32.26
2018-06-15T08:38:55.996Z,32.32
2018-06-15T08:41:24.052Z,32.01
2018-06-15T08:43:52.165Z,32.43
2018-06-15T08:46:20.206Z,30.81
2018-06-15T08:48:48.282Z,31.57
2018-06-15T08:51:16.316Z,32.03
2018-06-15T08:53:44.441Z,32.98
2018-06-15T08:56:12.537Z,32.34
2018-06-15T08:58:40.601Z,32.24
2018-06-15T09:01:08.648Z,32.98
2018-06-15T09:03:36.832Z,32.79
2018-06-15T09:06:04.888Z,33.06
2018-06-15T09:08:32.964Z,33.25
2018-06-15T09:11:01.020Z,32.58
2018-06-15T09:13:29.084Z,32.82
2018-06-15T09:15:57.154Z,32.30
2018-06-15T09:18:25.212Z,32.07
2018-06-15T09:20:53.299Z,32.81
2018-06-15T09:23:21.357Z,32.39
2018-06-15T09:25:50.052Z,33.13
2018-06-15T09:28:18.128Z,33.06
2018-06-15T09:30:46.238Z,33.60
2018-06-15T09:33:14.308Z,33.28
2018-06-15T09:35:42.359Z,33.70
2018-06-15T09:38:10.424Z,33.56
2018-06-15T09:40:38.477Z,32.72
2018-06-15T09:43:06.821Z,32.42
2018-06-15T09:45:35.126Z,31.22
2018-06-15T09:48:03.205Z,30.57
2018-06-15T09:50:31.290Z,31.07
2018-06-15T09:52:59.437Z,29.98
2018-06-15T09:55:27.428Z,29.62
2018-06-15T09:57:55.494Z,29.04
2018-06-15T10:00:29.028Z,28.45
2018-06-15T10:02:57.084Z,28.45
2018-06-15T10:05:25.128Z,28.45
2018-06-15T10:07:53.225Z,28.08
2018-06-15T10:10:21.288Z,27.29
2018-06-15T10:12:49.332Z,27.10
2018-06-15T10:15:17.395Z,27.50
2018-06-15T10:17:45.468Z,27.51
2018-06-15T10:20:13.526Z,26.94
2018-06-15T10:22:41.559Z,27.13
2018-06-15T10:25:09.635Z,26.01
2018-06-15T10:27:37.668Z,26.19
2018-06-15T10:30:05.774Z,26.46
2018-06-15T10:32:33.842Z,25.35
2018-06-15T10:35:01.904Z,25.93
2018-06-15T10:37:29.956Z,25.86
2018-06-15T10:39:58.000Z,25.83
2018-06-15T10:42:26.054Z,26.89
2018-06-15T10:44:54.117Z,26.83
2018-06-15T10:47:22.159Z,26.96
2018-06-15T10:49:50.244Z,26.42
2018-06-15T10:52:18.334Z,26.50
2018-06-15T10:54:46.396Z,26.68
2018-06-15T10:57:14.480Z,27.67
2018-06-15T10:59:42.548Z,27.74
2018-06-15T11:02:10.592Z,27.63
2018-06-15T11:04:38.660Z,27.75
2018-06-15T11:07:06.764Z,27.66
2018-06-15T11:09:34.839Z,28.46
2018-06-15T11:12:02.899Z,28.26
2018-06-15T11:14:30.972Z,27.70
2018-06-15T11:16:59.044Z,28.52
2018-06-15T11:19:27.095Z,27.98
2018-06-15T11:21:55.147Z,28.24
2018-06-15T11:24:23.258Z,28.31
2018-06-15T11:26:51.295Z,28.83
2018-06-15T11:29:19.393Z,28.76
2018-06-15T11:31:47.462Z,29.70
2018-06-15T11:34:15.521Z,29.63
2018-06-15T11:36:43.569Z,28.50
2018-06-15T11:39:11.712Z,28.20
2018-06-15T11:41:39.757Z,27.87
2018-06-15T11:44:07.806Z,27.11
2018-06-15T11:46:35.973Z,27.61
2018-06-15T11:49:04.108Z,27.26
2018-06-15T11:51:32.238Z,26.35
2018-06-15T11:54:00.280Z,25.78
2018-06-15T11:56:28.378Z,26.90
2018-06-15T11:58:56.449Z,26.29
2018-06-15T12:01:24.516Z,26.70
2018-06-15T12:03:52.684Z,25.48
2018-06-15T12:06:20.760Z,25.13
2018-06-15T12:08:48.816Z,24.98
2018-06-15T12:11:16.884Z,25.49
2018-06-15T12:13:44.952Z,24.07
2018-06-15T12:16:12.996Z,24.13
2018-06-15T12:18:41.092Z,23.39
2018-06-15T12:21:09.137Z,23.91
2018-06-15T12:23:37.244Z,24.24
2018-06-15T12:26:05.548Z,22.71
2018-06-15T12:28:33.649Z,23.29
2018-06-15T12:31:01.768Z,22.20
2018-06-15T12:33:29.822Z,23.43
2018-06-15T12:35:57.973Z,22.00
2018-06-15T12:38:26.073Z,22.96
2018-06-15T12:40:54.129Z,22.16
2018-06-15T12:43:22.177Z,21.93
2018-06-15T12:45:50.448Z,21.31
2018-06-15T12:48:18.496Z,21.59
2018-06-15T12:50:46.560Z,20.92
2018-06-15T12:53:14.696Z,21.96
2018-06-15T12:55:42.772Z,21.66
2018-06-15T12:58:10.813Z,21.10
2018-06-15T13:00:38.867Z,20.60
2018-06-15T13:03:06.966Z,20.46
2018-06-15T13:05:35.015Z,21.50
2018-06-15T13:08:03.187Z,20.11
2018-06-15T13:10:31.291Z,20.75
2018-06-15T13:12:59.381Z,20.70
2018-06-15T13:15:27.433Z,21.42
2018-06-15T13:17:55.543Z,20.80
2018-06-15T13:20:23.553Z,20.60
2018-06-15T13:22:51.720Z,22.04
2018-06-15T13:25:19.813Z,21.32
2018-06-15T13:27:47.885Z,21.96
2018-06-15T13:30:15.948Z,21.72
2018-06-15T13:32:44.008Z,21.91
2018-06-15T13:35:12.093Z,22.82
2018-06-15T13:37:40.204Z,22.76
2018-06-15T13:40:08.264Z,22.69
2018-06-15T13:42:36.310Z,23.61
2018-06-15T13:45:04.403Z,24.03
2018-06-15T13:47:32.470Z,24.13
2018-06-15T13:50:00.520Z,23.45
2018-06-15T13:52:28.580Z,23.80
2018-06-15T13:54:56.630Z,23.76
2018-06-15T13:57:24.680Z,24.26
2018-06-15T13:59:52.728Z,24.32
2018-06-15T14:02:20.800Z,25.43
2018-06-15T14:04:48.837Z,25.56
2018-06-15T14:07:17.260Z,25.54
2018-06-15T14:09:45.421Z,25.32
2018-06-15T14:12:13.472Z,25.01
2018-06-15T14:14:41.522Z,24.96
2018-06-15T14:17:09.591Z,25.25
2018-06-15T14:19:37.656Z,24.93
2018-06-15T14:22:05.732Z,24.95
2018-06-15T14:24:33.777Z,26.16
2018-06-15T14:27:01.840Z,24.98
2018-06-15T14:29:29.899Z,25.67
2018-06-15T14:31:57.960Z,25.50
2018-06-15T14:34:26.045Z,25.21
2018-06-15T14:36:54.169Z,25.23
2018-06-15T14:39:22.228Z,26.08
2018-06-15T14:41:51.345Z,25.45
2018-06-15T14:44:19.415Z,25.89
2018-06-15T14:46:47.485Z,25.81
2018-06-15T14:49:15.520Z,25.94
2018-06-15T14:51:43.576Z,25.62
2018-06-15T14:54:11.640Z,26.86
2018-06-15T14:56:39.756Z,26.73
2018-06-15T14:59:07.821Z,25.65
2018-06-15T15:01:35.881Z,25.46
2018-06-15T15:04:03.937Z,26.24
2018-06-15T15:06:31.991Z,26.03
2018-06-15T15:09:00.057Z,26.74
2018-06-15T15:11:28.116Z,26.57
2018-06-15T15:13:56.184Z,26.07
2018-06-15T15:16:24.285Z,25.57
2018-06-15T15:18:52.344Z,26.84
2018-06-15T15:21:20.432Z,26.27
2018-06-15T15:23:48.460Z,26.80
2018-06-15T15:26:16.516Z,26.79
2018-06-15T15:28:44.643Z,26.98
2018-06-15T15:31:12.705Z,26.90
2018-06-15T15:33:40.794Z,27.23
2018-06-15T15:36:08.913Z,26.80
2018-06-15T15:38:37.027Z,27.20
2018-06-15T15:41:05.120Z,27.01
2018-06-15T15:43:33.193Z,27.11
2018-06-15T15:46:01.221Z,26.27
2018-06-15T15:48:29.281Z,26.18
2018-06-15T15:50:57.333Z,26.80
2018-06-15T15:53:25.648Z,26.07
2018-06-15T15:55:53.687Z,25.80
2018-06-15T15:58:22.291Z,26.04
2018-06-15T16:00:50.337Z,25.89
2018-06-15T16:03:18.387Z,26.58
2018-06-15T16:05:46.432Z,24.92
2018-06-15T16:08:14.492Z,25.46
2018-06-15T16:10:42.544Z,26.03
2018-06-15T16:13:10.646Z,25.97
2018-06-15T16:15:38.650Z,26.46
2018-06-15T16:18:06.716Z,26.63
2018-06-15T16:20:34.752Z,26.26
2018-06-15T16:23:02.811Z,26.54
2018-06-15T16:25:30.880Z,26.33
2018-06-15T16:27:58.940Z,27.06
2018-06-15T16:30:26.977Z,26.95
2018-06-15T16:32:55.034Z,26.64
2018-06-15T16:35:23.096Z,27.54
2018-06-15T16:37:51.352Z,27.37
2018-06-15T16:40:19.392Z,26.98
2018-06-15T16:42:47.479Z,27.25
2018-06-15T16:45:15.525Z,26.93
2018-06-15T16:47:43.587Z,27.63
2018-06-15T16:50:11.629Z,27.54
2018-06-15T16:52:39.676Z,27.38
2018-06-15T16:55:07.727Z,27.89
2018-06-15T16:57:35.776Z,27.44
2018-06-15T17:00:03.870Z,28.08
2018-06-15T17:02:31.977Z,28.18
2018-06-15T17:04:59.997Z,27.08
2018-06-15T17:07:28.128Z,28.38
2018-06-15T17:09:56.224Z,28.32
2018-06-15T17:12:24.256Z,28.20
2018-06-15T17:14:52.304Z,28.07
2018-06-15T17:17:20.346Z,27.57
2018-06-15T17:19:48.408Z,27.57
2018-06-15T17:22:16.461Z,28.03
2018-06-15T17:24:44.536Z,28.05
2018-06-15T17:27:12.620Z,27.42
2018-06-15T17:29:40.703Z,28.05
2018-06-15T17:32:08.752Z,28.62
2018-06-15T17:34:36.812Z,28.52
2018-06-15T17:37:05.071Z,27.93
2018-06-15T17:40:00.762Z,28.43
2018-06-15T17:42:28.929Z,28.42
2018-06-15T17:44:57.040Z,28.63
2018-06-15T17:47:25.089Z,28.81
2018-06-15T17:49:53.147Z,28.90
2018-06-15T17:52:21.200Z,28.56
2018-06-15T17:54:49.264Z,29.32
2018-06-15T17:57:17.321Z,29.26
2018-06-15T17:59:45.401Z,29.23
2018-06-15T18:02:13.473Z,29.67
2018-06-15T18:04:41.540Z,29.82
2018-06-15T18:07:09.622Z,29.66
2018-06-15T18:09:37.707Z,29.10
2018-06-15T18:12:07.754Z,30.43
2018-06-15T18:14:35.938Z,30.86
2018-06-15T18:17:04.005Z,30.71
2018-06-15T18:19:32.086Z,30.46
2018-06-15T18:22:00.180Z,31.21
2018-06-15T18:24:28.320Z,31.43
2018-06-15T18:26:56.416Z,31.07
2018-06-15T18:29:24.508Z,32.31
2018-06-15T18:31:52.624Z,31.69
2018-06-15T18:34:20.864Z,31.87
2018-06-15T18:36:48.959Z,33.04
2018-06-15T18:39:17.063Z,33.25
2018-06-15T18:41:45.332Z,32.90
2018-06-15T18:44:13.863Z,32.82
2018-06-15T18:46:41.944Z,32.20
2018-06-15T18:49:10.845Z,32.34
2018-06-15T18:51:39.501Z,32.84
2018-06-15T18:54:07.576Z,33.42
2018-06-15T18:56:35.630Z,33.07
2018-06-15T18:59:03.725Z,33.14
2018-06-15T19:01:32.890Z,32.95
2018-06-15T19:04:01.051Z,32.83
2018-06-15T19:06:29.108Z,32.77
2018-06-15T19:08:57.185Z,32.52
2018-06-15T19:11:25.248Z,32.93
2018-06-15T19:13:54.339Z,33.05
2018-06-15T19:16:22.396Z,33.12
2018-06-15T19:18:51.351Z,33.32
2018-06-15T19:21:21.417Z,33.24
2018-06-15T19:23:51.238Z,33.35
2018-06-15T19:26:19.538Z,33.93
2018-06-15T19:28:50.834Z,34.13
2018-06-15T19:31:21.888Z,34.22
2018-06-15T19:33:51.212Z,34.22
2018-06-15T19:36:21.453Z,34.75
2018-06-15T19:38:50.847Z,34.84
2018-06-15T19:41:26.260Z,35.14
2018-06-15T19:43:54.338Z,34.39
2018-06-15T19:46:23.365Z,35.15
2018-06-15T19:48:52.562Z,35.17
2018-06-15T19:51:23.060Z,35.88
2018-06-15T19:53:53.076Z,36.47
2018-06-15T19:56:22.784Z,35.58
2018-06-15T19:58:51.837Z,36.33
2018-06-15T20:01:20.644Z,36.06
2018-06-15T20:03:49.536Z,36.84
2018-06-15T20:06:17.670Z,36.27
2018-06-15T20:08:45.728Z,36.88
2018-06-15T20:11:13.809Z,36.62
2018-06-15T20:13:42.097Z,36.88
2018-06-15T20:16:10.172Z,37.70
2018-06-15T20:18:39.410Z,37.35
2018-06-15T20:21:07.521Z,37.60
2018-06-15T20:23:36.402Z,37.76
2018-06-15T20:26:04.503Z,38.01
2018-06-15T20:28:32.565Z,38.12
2018-06-15T20:31:00.689Z,38.43
2018-06-15T20:33:28.785Z,37.90
2018-06-15T20:35:56.855Z,38.77
2018-06-15T20:38:24.924Z,38.60
2018-06-15T20:40:53.027Z,38.87
2018-06-15T20:43:21.094Z,38.97
2018-06-15T20:45:49.150Z,39.14
2018-06-15T20:48:17.205Z,38.55
2018-06-15T20:50:45.291Z,38.89
2018-06-15T20:53:13.385Z,39.03
2018-06-15T20:55:41.429Z,39.29
2018-06-15T20:58:09.506Z,39.39
2018-06-15T21:00:37.596Z,39.50
2018-06-15T21:03:05.652Z,39.27
2018-06-15T21:05:33.737Z,39.33
2018-06-15T21:08:01.824Z,40.01
2018-06-15T21:10:29.900Z,39.26
2018-06-15T21:12:57.960Z,40.12
2018-06-15T21:15:26.028Z,39.27
2018-06-15T21:17:54.077Z,39.69
2018-06-15T21:20:22.129Z,39.64
2018-06-15T21:22:50.189Z,39.92
2018-06-15T21:25:18.259Z,39.79
2018-06-15T21:27:46.347Z,39.66
2018-06-15T21:30:14.400Z,39.17
2018-06-15T21:32:42.489Z,39.21
2018-06-15T21:35:10.545Z,39.75
2018-06-15T21:37:38.603Z,39.98
2018-06-15T21:40:06.659Z,39.23
2018-06-15T21:42:34.776Z,39.19
2018-06-15T21:45:02.777Z,39.77
2018-06-15T21:47:30.824Z,39.14
2018-06-15T21:49:58.868Z,39.80
2018-06-15T21:52:26.948Z,39.93
2018-06-15T21:54:55.123Z,39.72
2018-06-15T21:57:23.224Z,39.77
2018-06-15T21:59:51.272Z,39.57
2018-06-15T22:02:19.336Z,39.87
2018-06-15T22:04:47.400Z,39.51
2018-06-15T22:07:15.466Z,39.50
2018-06-15T22:09:43.516Z,40.41
2018-06-15T22:12:11.588Z,40.15
2018-06-15T22:14:39.632Z,40.65
2018-06-15T22:17:07.709Z,40.17
2018-06-15T22:20:00.637Z,40.37
2018-06-15T22:22:28.855Z,40.04
2018-06-15T22:24:56.916Z,39.71
2018-06-15T22:27:25.019Z,40.20
2018-06-15T22:29:53.057Z,40.02
2018-06-15T22:32:21.145Z,39.94
2018-06-15T22:34:49.185Z,39.32
2018-06-15T22:37:17.244Z,40.10
2018-06-15T22:39:45.417Z,39.78
2018-06-15T22:42:13.482Z,40.02
2018-06-15T22:44:41.565Z,40.35
2018-06-15T22:47:09.645Z,39.45
2018-06-15T22:49:37.697Z,40.17
2018-06-15T22:52:05.929Z,40.12
2018-06-15T22:54:34.065Z,40.16
2018-06-15T22:57:02.114Z,40.23
2018-06-15T22:59:30.165Z,40.05
2018-06-15T23:01:58.251Z,40.11
2018-06-15T23:04:26.321Z,40.54
2018-06-15T23:06:54.381Z,40.67
2018-06-15T23:09:22.464Z,40.77
2018-06-15T23:11:50.597Z,39.97
2018-06-15T23:14:18.664Z,40.39
2018-06-15T23:16:46.736Z,40.17
2018-06-15T23:19:14.777Z,40.52
2018-06-15T23:21:42.848Z,40.41
2018-06-15T23:24:10.901Z,40.45
2018-06-15T23:26:38.992Z,40.38
2018-06-15T23:29:07.048Z,40.49
2018-06-15T23:31:35.113Z,40.59
2018-06-15T23:34:03.175Z,40.46
2018-06-15T23:36:31.232Z,40.90
2018-06-15T23:38:59.276Z,40.91
2018-06-15T23:41:27.327Z,41.15
2018-06-15T23:43:55.461Z,41.28
2018-06-15T23:46:23.520Z,40.70
2018-06-15T23:48:51.589Z,41.27
2018-06-15T23:51:19.674Z,40.78
2018-06-15T23:53:47.767Z,41.26
2018-06-15T23:56:15.814Z,41.33
2018-06-15T23:58:43.868Z,41.35
